sensor_id;sensor_type;location;lat;lon;timestamp;P1;durP1;ratioP1;P2;durP2;ratioP2
583;SDS011;27024;54.068;12.116;2022-11-20T00:01:09;5.13;;;2.30;;
583;SDS011;27024;54.068;12.116;2022-11-20T00:03:37;3.33;;;1.88;;
583;SDS011;27024;54.068;12.116;2022-11-20T00:06:04;2.78;;;1.50;;
583;SDS011;27024;54.068;12.116;2022-11-20T00:08:33;2.75;;;2.03;;
583;SDS011;27024;54.068;12.116;2022-11-20T00:11:07;4.93;;;1.38;;
583;SDS011;27024;54.068;12.116;2022-11-20T00:13:41;3.15;;;1.67;;
583;SDS011;27024;54.068;12.116;2022-11-20T00:16:09;3.10;;;1.55;;
583;SDS011;27024;54.068;12.116;2022-11-20T00:18:37;5.22;;;1.63;;
583;SDS011;27024;54.068;12.116;2022-11-20T00:21:04;2.63;;;1.50;;
583;SDS011;27024;54.068;12.116;2022-11-20T00:23:33;2.60;;;1.58;;
583;SDS011;27024;54.068;12.116;2022-11-20T00:26:01;2.55;;;1.17;;
583;SDS011;27024;54.068;12.116;2022-11-20T00:28:29;3.42;;;1.35;;
583;SDS011;27024;54.068;12.116;2022-11-20T00:31:00;2.88;;;1.45;;
583;SDS011;27024;54.068;12.116;2022-11-20T00:33:34;3.67;;;1.88;;
583;SDS011;27024;54.068;12.116;2022-11-20T00:36:05;2.10;;;1.40;;
583;SDS011;27024;54.068;12.116;2022-11-20T00:38:36;3.80;;;1.65;;
583;SDS011;27024;54.068;12.116;2022-11-20T00:41:04;2.95;;;1.77;;
583;SDS011;27024;54.068;12.116;2022-11-20T00:43:32;2.15;;;1.70;;
583;SDS011;27024;54.068;12.116;2022-11-20T00:45:59;2.03;;;0.98;;
583;SDS011;27024;54.068;12.116;2022-11-20T00:48:27;2.20;;;1.50;;
583;SDS011;27024;54.068;12.116;2022-11-20T00:50:55;2.78;;;1.73;;
583;SDS011;27024;54.068;12.116;2022-11-20T00:53:22;3.22;;;1.25;;
583;SDS011;27024;54.068;12.116;2022-11-20T00:55:53;2.75;;;1.38;;
583;SDS011;27024;54.068;12.116;2022-11-20T00:58:31;2.00;;;0.70;;
583;SDS011;27024;54.068;12.116;2022-11-20T01:03:27;7.65;;;1.27;;
583;SDS011;27024;54.068;12.116;2022-11-20T01:05:54;1.77;;;0.98;;
583;SDS011;27024;54.068;12.116;2022-11-20T01:08:21;1.33;;;0.60;;
583;SDS011;27024;54.068;12.116;2022-11-20T01:10:47;1.75;;;1.27;;
583;SDS011;27024;54.068;12.116;2022-11-20T01:13:14;2.00;;;0.77;;
583;SDS011;27024;54.068;12.116;2022-11-20T01:16:04;2.40;;;1.00;;
583;SDS011;27024;54.068;12.116;2022-11-20T01:18:31;2.25;;;1.58;;
583;SDS011;27024;54.068;12.116;2022-11-20T01:21:05;3.22;;;1.40;;
583;SDS011;27024;54.068;12.116;2022-11-20T01:23:35;3.70;;;2.15;;
583;SDS011;27024;54.068;12.116;2022-11-20T01:26:04;2.65;;;1.98;;
583;SDS011;27024;54.068;12.116;2022-11-20T01:28:34;2.80;;;1.65;;
583;SDS011;27024;54.068;12.116;2022-11-20T01:31:01;2.92;;;1.27;;
583;SDS011;27024;54.068;12.116;2022-11-20T01:33:37;3.22;;;1.60;;
583;SDS011;27024;54.068;12.116;2022-11-20T01:36:05;5.35;;;1.88;;
583;SDS011;27024;54.068;12.116;2022-11-20T01:38:32;2.67;;;1.55;;
583;SDS011;27024;54.068;12.116;2022-11-20T01:40:59;3.65;;;2.00;;
583;SDS011;27024;54.068;12.116;2022-11-20T01:43:26;2.38;;;1.10;;
583;SDS011;27024;54.068;12.116;2022-11-20T01:48:38;2.83;;;1.13;;
583;SDS011;27024;54.068;12.116;2022-11-20T01:51:18;2.75;;;1.80;;
583;SDS011;27024;54.068;12.116;2022-11-20T01:53:53;4.95;;;2.13;;
583;SDS011;27024;54.068;12.116;2022-11-20T01:56:23;2.92;;;2.00;;
583;SDS011;27024;54.068;12.116;2022-11-20T01:58:52;3.33;;;2.28;;
583;SDS011;27024;54.068;12.116;2022-11-20T02:01:23;2.90;;;1.77;;
583;SDS011;27024;54.068;12.116;2022-11-20T02:03:50;5.22;;;1.70;;
583;SDS011;27024;54.068;12.116;2022-11-20T02:06:24;2.65;;;1.92;;
583;SDS011;27024;54.068;12.116;2022-11-20T02:08:54;3.95;;;2.33;;
583;SDS011;27024;54.068;12.116;2022-11-20T02:11:21;3.60;;;2.10;;
583;SDS011;27024;54.068;12.116;2022-11-20T02:13:48;4.72;;;1.92;;
583;SDS011;27024;54.068;12.116;2022-11-20T02:16:27;3.42;;;2.33;;
583;SDS011;27024;54.068;12.116;2022-11-20T02:18:58;3.70;;;2.08;;
583;SDS011;27024;54.068;12.116;2022-11-20T02:24:02;4.60;;;3.22;;
583;SDS011;27024;54.068;12.116;2022-11-20T02:26:40;6.05;;;2.80;;
583;SDS011;27024;54.068;12.116;2022-11-20T02:29:24;4.20;;;2.80;;
583;SDS011;27024;54.068;12.116;2022-11-20T02:31:54;4.82;;;2.95;;
583;SDS011;27024;54.068;12.116;2022-11-20T02:34:23;4.00;;;3.10;;
583;SDS011;27024;54.068;12.116;2022-11-20T02:36:50;4.97;;;2.85;;
583;SDS011;27024;54.068;12.116;2022-11-20T02:39:18;3.55;;;2.58;;
583;SDS011;27024;54.068;12.116;2022-11-20T02:41:47;4.00;;;2.42;;
583;SDS011;27024;54.068;12.116;2022-11-20T02:44:14;5.15;;;2.65;;
583;SDS011;27024;54.068;12.116;2022-11-20T02:46:40;5.05;;;3.45;;
583;SDS011;27024;54.068;12.116;2022-11-20T02:49:07;4.65;;;3.10;;
583;SDS011;27024;54.068;12.116;2022-11-20T02:51:34;5.28;;;2.70;;
583;SDS011;27024;54.068;12.116;2022-11-20T02:54:01;3.97;;;2.35;;
583;SDS011;27024;54.068;12.116;2022-11-20T02:56:28;4.03;;;2.78;;
583;SDS011;27024;54.068;12.116;2022-11-20T02:58:55;3.42;;;2.60;;
583;SDS011;27024;54.068;12.116;2022-11-20T03:01:22;4.65;;;2.60;;
583;SDS011;27024;54.068;12.116;2022-11-20T03:03:48;5.45;;;2.53;;
583;SDS011;27024;54.068;12.116;2022-11-20T03:06:16;4.03;;;2.35;;
583;SDS011;27024;54.068;12.116;2022-11-20T03:08:43;3.25;;;1.67;;
583;SDS011;27024;54.068;12.116;2022-11-20T03:11:10;4.75;;;2.50;;
583;SDS011;27024;54.068;12.116;2022-11-20T03:13:37;3.40;;;2.65;;
583;SDS011;27024;54.068;12.116;2022-11-20T03:16:08;4.40;;;2.53;;
583;SDS011;27024;54.068;12.116;2022-11-20T03:18:38;3.65;;;2.58;;
583;SDS011;27024;54.068;12.116;2022-11-20T03:21:06;3.97;;;2.40;;
583;SDS011;27024;54.068;12.116;2022-11-20T03:23:34;3.38;;;2.38;;
583;SDS011;27024;54.068;12.116;2022-11-20T03:26:17;3.75;;;2.22;;
583;SDS011;27024;54.068;12.116;2022-11-20T03:28:47;3.13;;;2.10;;
583;SDS011;27024;54.068;12.116;2022-11-20T03:31:19;3.55;;;1.83;;
583;SDS011;27024;54.068;12.116;2022-11-20T03:33:48;3.30;;;2.25;;
583;SDS011;27024;54.068;12.116;2022-11-20T03:36:16;5.45;;;1.98;;
583;SDS011;27024;54.068;12.116;2022-11-20T03:38:44;3.53;;;2.05;;
583;SDS011;27024;54.068;12.116;2022-11-20T03:41:12;3.83;;;1.90;;
583;SDS011;27024;54.068;12.116;2022-11-20T03:43:41;3.55;;;2.33;;
583;SDS011;27024;54.068;12.116;2022-11-20T03:46:07;4.65;;;2.30;;
583;SDS011;27024;54.068;12.116;2022-11-20T03:48:34;3.15;;;1.65;;
583;SDS011;27024;54.068;12.116;2022-11-20T03:53:38;3.72;;;2.05;;
583;SDS011;27024;54.068;12.116;2022-11-20T03:56:06;3.60;;;2.30;;
583;SDS011;27024;54.068;12.116;2022-11-20T03:58:34;3.30;;;2.25;;
583;SDS011;27024;54.068;12.116;2022-11-20T04:01:04;3.50;;;2.00;;
583;SDS011;27024;54.068;12.116;2022-11-20T04:03:51;3.15;;;1.95;;
583;SDS011;27024;54.068;12.116;2022-11-20T04:06:19;3.75;;;2.28;;
583;SDS011;27024;54.068;12.116;2022-11-20T04:08:48;3.53;;;2.13;;
583;SDS011;27024;54.068;12.116;2022-11-20T04:13:54;3.97;;;1.92;;
583;SDS011;27024;54.068;12.116;2022-11-20T04:16:23;3.53;;;2.17;;
583;SDS011;27024;54.068;12.116;2022-11-20T04:18:54;3.65;;;2.05;;
583;SDS011;27024;54.068;12.116;2022-11-20T04:21:22;3.33;;;2.40;;
583;SDS011;27024;54.068;12.116;2022-11-20T04:23:50;4.55;;;2.03;;
583;SDS011;27024;54.068;12.116;2022-11-20T04:26:19;4.45;;;2.03;;
583;SDS011;27024;54.068;12.116;2022-11-20T04:28:47;4.03;;;2.33;;
583;SDS011;27024;54.068;12.116;2022-11-20T04:31:15;3.72;;;2.03;;
583;SDS011;27024;54.068;12.116;2022-11-20T04:33:44;3.42;;;2.15;;
583;SDS011;27024;54.068;12.116;2022-11-20T04:36:12;4.32;;;2.10;;
583;SDS011;27024;54.068;12.116;2022-11-20T04:38:41;3.63;;;2.10;;
583;SDS011;27024;54.068;12.116;2022-11-20T04:41:18;4.05;;;2.10;;
583;SDS011;27024;54.068;12.116;2022-11-20T04:43:50;3.92;;;2.50;;
583;SDS011;27024;54.068;12.116;2022-11-20T04:46:19;4.40;;;2.60;;
583;SDS011;27024;54.068;12.116;2022-11-20T04:48:47;5.25;;;2.60;;
583;SDS011;27024;54.068;12.116;2022-11-20T04:51:13;5.00;;;2.67;;
583;SDS011;27024;54.068;12.116;2022-11-20T04:53:41;6.18;;;3.53;;
583;SDS011;27024;54.068;12.116;2022-11-20T04:56:08;6.40;;;3.38;;
583;SDS011;27024;54.068;12.116;2022-11-20T04:58:37;8.27;;;3.95;;
583;SDS011;27024;54.068;12.116;2022-11-20T05:01:12;7.57;;;4.03;;
583;SDS011;27024;54.068;12.116;2022-11-20T05:03:44;6.68;;;3.88;;
583;SDS011;27024;54.068;12.116;2022-11-20T05:06:12;8.55;;;3.70;;
583;SDS011;27024;54.068;12.116;2022-11-20T05:08:41;6.63;;;3.30;;
583;SDS011;27024;54.068;12.116;2022-11-20T05:11:12;9.32;;;4.10;;
583;SDS011;27024;54.068;12.116;2022-11-20T05:13:41;7.22;;;4.07;;
583;SDS011;27024;54.068;12.116;2022-11-20T05:16:09;7.07;;;4.38;;
583;SDS011;27024;54.068;12.116;2022-11-20T05:18:39;7.50;;;4.15;;
583;SDS011;27024;54.068;12.116;2022-11-20T05:21:06;8.45;;;3.92;;
583;SDS011;27024;54.068;12.116;2022-11-20T05:23:35;7.95;;;4.35;;
583;SDS011;27024;54.068;12.116;2022-11-20T05:26:02;7.93;;;3.83;;
583;SDS011;27024;54.068;12.116;2022-11-20T05:28:30;7.00;;;3.75;;
583;SDS011;27024;54.068;12.116;2022-11-20T05:31:04;7.75;;;3.92;;
583;SDS011;27024;54.068;12.116;2022-11-20T05:33:35;7.47;;;4.03;;
583;SDS011;27024;54.068;12.116;2022-11-20T05:36:02;7.50;;;3.80;;
583;SDS011;27024;54.068;12.116;2022-11-20T05:38:30;6.90;;;3.83;;
583;SDS011;27024;54.068;12.116;2022-11-20T05:41:13;7.13;;;3.50;;
583;SDS011;27024;54.068;12.116;2022-11-20T05:43:42;8.70;;;4.22;;
583;SDS011;27024;54.068;12.116;2022-11-20T05:46:12;6.15;;;3.28;;
583;SDS011;27024;54.068;12.116;2022-11-20T05:48:41;6.80;;;3.42;;
583;SDS011;27024;54.068;12.116;2022-11-20T05:51:09;6.15;;;3.60;;
583;SDS011;27024;54.068;12.116;2022-11-20T05:53:38;6.72;;;3.75;;
583;SDS011;27024;54.068;12.116;2022-11-20T05:56:13;5.90;;;3.53;;
583;SDS011;27024;54.068;12.116;2022-11-20T05:58:42;5.78;;;2.95;;
583;SDS011;27024;54.068;12.116;2022-11-20T06:01:19;5.78;;;2.97;;
583;SDS011;27024;54.068;12.116;2022-11-20T06:03:48;5.32;;;3.35;;
583;SDS011;27024;54.068;12.116;2022-11-20T06:06:17;5.05;;;2.88;;
583;SDS011;27024;54.068;12.116;2022-11-20T06:08:45;4.43;;;2.40;;
583;SDS011;27024;54.068;12.116;2022-11-20T06:11:12;5.68;;;2.97;;
583;SDS011;27024;54.068;12.116;2022-11-20T06:13:41;5.18;;;2.55;;
583;SDS011;27024;54.068;12.116;2022-11-20T06:16:08;6.03;;;2.95;;
583;SDS011;27024;54.068;12.116;2022-11-20T06:18:36;5.45;;;2.95;;
583;SDS011;27024;54.068;12.116;2022-11-20T06:21:05;5.30;;;2.65;;
583;SDS011;27024;54.068;12.116;2022-11-20T06:23:37;7.18;;;3.08;;
583;SDS011;27024;54.068;12.116;2022-11-20T06:26:06;4.43;;;2.38;;
583;SDS011;27024;54.068;12.116;2022-11-20T06:28:34;5.97;;;2.88;;
583;SDS011;27024;54.068;12.116;2022-11-20T06:31:02;5.78;;;2.90;;
583;SDS011;27024;54.068;12.116;2022-11-20T06:33:29;6.40;;;3.63;;
583;SDS011;27024;54.068;12.116;2022-11-20T06:36:00;6.18;;;2.88;;
583;SDS011;27024;54.068;12.116;2022-11-20T06:38:35;5.25;;;2.72;;
583;SDS011;27024;54.068;12.116;2022-11-20T06:41:03;5.85;;;2.60;;
583;SDS011;27024;54.068;12.116;2022-11-20T06:43:35;5.03;;;3.08;;
583;SDS011;27024;54.068;12.116;2022-11-20T06:46:02;5.78;;;3.15;;
583;SDS011;27024;54.068;12.116;2022-11-20T06:48:29;6.40;;;3.38;;
583;SDS011;27024;54.068;12.116;2022-11-20T06:50:56;6.78;;;3.45;;
583;SDS011;27024;54.068;12.116;2022-11-20T06:53:23;6.45;;;2.78;;
583;SDS011;27024;54.068;12.116;2022-11-20T06:55:51;6.10;;;2.85;;
583;SDS011;27024;54.068;12.116;2022-11-20T06:58:18;5.97;;;2.90;;
583;SDS011;27024;54.068;12.116;2022-11-20T07:00:45;5.68;;;2.72;;
583;SDS011;27024;54.068;12.116;2022-11-20T07:03:12;6.22;;;3.22;;
583;SDS011;27024;54.068;12.116;2022-11-20T07:05:39;6.65;;;3.10;;
583;SDS011;27024;54.068;12.116;2022-11-20T07:08:06;5.72;;;3.10;;
583;SDS011;27024;54.068;12.116;2022-11-20T07:10:33;6.90;;;3.20;;
583;SDS011;27024;54.068;12.116;2022-11-20T07:13:01;6.03;;;3.20;;
583;SDS011;27024;54.068;12.116;2022-11-20T07:15:27;6.90;;;3.22;;
583;SDS011;27024;54.068;12.116;2022-11-20T07:17:54;5.82;;;2.97;;
583;SDS011;27024;54.068;12.116;2022-11-20T07:20:21;7.15;;;3.50;;
583;SDS011;27024;54.068;12.116;2022-11-20T07:22:52;6.82;;;3.38;;
583;SDS011;27024;54.068;12.116;2022-11-20T07:25:20;7.68;;;4.00;;
583;SDS011;27024;54.068;12.116;2022-11-20T07:27:47;8.52;;;3.33;;
583;SDS011;27024;54.068;12.116;2022-11-20T07:30:17;7.32;;;3.03;;
583;SDS011;27024;54.068;12.116;2022-11-20T07:32:51;7.10;;;3.35;;
583;SDS011;27024;54.068;12.116;2022-11-20T07:35:20;7.32;;;3.60;;
583;SDS011;27024;54.068;12.116;2022-11-20T07:37:47;7.88;;;3.78;;
583;SDS011;27024;54.068;12.116;2022-11-20T07:40:15;6.57;;;3.63;;
583;SDS011;27024;54.068;12.116;2022-11-20T07:42:49;7.82;;;3.50;;
583;SDS011;27024;54.068;12.116;2022-11-20T07:45:21;7.22;;;3.70;;
583;SDS011;27024;54.068;12.116;2022-11-20T07:47:49;7.57;;;3.50;;
583;SDS011;27024;54.068;12.116;2022-11-20T07:50:17;6.97;;;3.25;;
583;SDS011;27024;54.068;12.116;2022-11-20T07:52:44;8.18;;;3.97;;
583;SDS011;27024;54.068;12.116;2022-11-20T07:55:12;7.50;;;3.45;;
583;SDS011;27024;54.068;12.116;2022-11-20T07:57:39;7.30;;;3.63;;
583;SDS011;27024;54.068;12.116;2022-11-20T08:00:07;7.95;;;4.30;;
583;SDS011;27024;54.068;12.116;2022-11-20T08:02:38;7.47;;;3.92;;
583;SDS011;27024;54.068;12.116;2022-11-20T08:05:06;7.47;;;4.03;;
583;SDS011;27024;54.068;12.116;2022-11-20T08:07:37;6.10;;;3.70;;
583;SDS011;27024;54.068;12.116;2022-11-20T08:10:09;6.28;;;3.33;;
583;SDS011;27024;54.068;12.116;2022-11-20T08:12:48;5.63;;;2.75;;
583;SDS011;27024;54.068;12.116;2022-11-20T08:15:35;6.40;;;3.42;;
583;SDS011;27024;54.068;12.116;2022-11-20T08:18:06;6.93;;;3.47;;
583;SDS011;27024;54.068;12.116;2022-11-20T08:20:55;5.95;;;3.10;;
583;SDS011;27024;54.068;12.116;2022-11-20T08:23:22;6.68;;;3.65;;
583;SDS011;27024;54.068;12.116;2022-11-20T08:25:49;6.20;;;3.17;;
583;SDS011;27024;54.068;12.116;2022-11-20T08:28:17;5.80;;;3.22;;
583;SDS011;27024;54.068;12.116;2022-11-20T08:30:47;5.88;;;3.28;;
583;SDS011;27024;54.068;12.116;2022-11-20T08:33:15;4.40;;;2.50;;
583;SDS011;27024;54.068;12.116;2022-11-20T08:35:43;4.80;;;2.30;;
583;SDS011;27024;54.068;12.116;2022-11-20T08:38:10;4.60;;;2.65;;
583;SDS011;27024;54.068;12.116;2022-11-20T08:40:40;4.20;;;2.90;;
583;SDS011;27024;54.068;12.116;2022-11-20T08:43:06;5.50;;;2.80;;
583;SDS011;27024;54.068;12.116;2022-11-20T08:45:33;5.22;;;2.90;;
583;SDS011;27024;54.068;12.116;2022-11-20T08:48:05;4.57;;;2.50;;
583;SDS011;27024;54.068;12.116;2022-11-20T08:50:32;4.30;;;2.72;;
583;SDS011;27024;54.068;12.116;2022-11-20T08:53:05;4.10;;;2.53;;
583;SDS011;27024;54.068;12.116;2022-11-20T08:55:32;4.47;;;2.35;;
583;SDS011;27024;54.068;12.116;2022-11-20T08:58:05;4.35;;;2.13;;
583;SDS011;27024;54.068;12.116;2022-11-20T09:00:33;5.03;;;2.45;;
583;SDS011;27024;54.068;12.116;2022-11-20T09:03:00;4.45;;;2.40;;
583;SDS011;27024;54.068;12.116;2022-11-20T09:05:28;3.58;;;1.88;;
583;SDS011;27024;54.068;12.116;2022-11-20T09:07:58;3.80;;;2.42;;
583;SDS011;27024;54.068;12.116;2022-11-20T09:10:28;4.15;;;2.38;;
583;SDS011;27024;54.068;12.116;2022-11-20T09:12:55;3.60;;;2.22;;
583;SDS011;27024;54.068;12.116;2022-11-20T09:15:23;4.15;;;1.85;;
583;SDS011;27024;54.068;12.116;2022-11-20T09:17:54;7.40;;;2.63;;
583;SDS011;27024;54.068;12.116;2022-11-20T09:20:22;3.20;;;2.28;;
583;SDS011;27024;54.068;12.116;2022-11-20T09:22:49;2.88;;;1.88;;
583;SDS011;27024;54.068;12.116;2022-11-20T09:25:16;3.42;;;1.92;;
583;SDS011;27024;54.068;12.116;2022-11-20T09:27:43;3.70;;;2.45;;
583;SDS011;27024;54.068;12.116;2022-11-20T09:30:13;3.63;;;2.53;;
583;SDS011;27024;54.068;12.116;2022-11-20T09:32:40;3.00;;;2.00;;
583;SDS011;27024;54.068;12.116;2022-11-20T09:35:08;3.05;;;1.92;;
583;SDS011;27024;54.068;12.116;2022-11-20T09:37:37;2.88;;;1.83;;
583;SDS011;27024;54.068;12.116;2022-11-20T09:40:04;3.00;;;2.63;;
583;SDS011;27024;54.068;12.116;2022-11-20T09:53:30;2.33;;;1.58;;
583;SDS011;27024;54.068;12.116;2022-11-20T09:56:13;2.25;;;1.77;;
583;SDS011;27024;54.068;12.116;2022-11-20T09:58:57;3.80;;;2.40;;
583;SDS011;27024;54.068;12.116;2022-11-20T10:01:32;2.70;;;1.60;;
583;SDS011;27024;54.068;12.116;2022-11-20T10:04:12;2.28;;;1.73;;
583;SDS011;27024;54.068;12.116;2022-11-20T10:06:56;2.40;;;1.10;;
583;SDS011;27024;54.068;12.116;2022-11-20T10:09:53;2.80;;;1.77;;
583;SDS011;27024;54.068;12.116;2022-11-20T10:12:27;1.92;;;1.10;;
583;SDS011;27024;54.068;12.116;2022-11-20T10:26:16;2.45;;;1.30;;
583;SDS011;27024;54.068;12.116;2022-11-20T10:31:37;2.20;;;1.52;;
583;SDS011;27024;54.068;12.116;2022-11-20T10:34:28;2.38;;;1.67;;
583;SDS011;27024;54.068;12.116;2022-11-20T10:36:59;2.90;;;2.03;;
583;SDS011;27024;54.068;12.116;2022-11-20T10:39:43;2.30;;;1.33;;
583;SDS011;27024;54.068;12.116;2022-11-20T10:42:18;3.10;;;1.65;;
583;SDS011;27024;54.068;12.116;2022-11-20T10:44:54;2.95;;;2.05;;
583;SDS011;27024;54.068;12.116;2022-11-20T10:47:31;3.33;;;2.30;;
583;SDS011;27024;54.068;12.116;2022-11-20T10:50:02;2.70;;;1.98;;
583;SDS011;27024;54.068;12.116;2022-11-20T10:52:39;3.28;;;2.30;;
583;SDS011;27024;54.068;12.116;2022-11-20T10:55:39;3.42;;;2.13;;
583;SDS011;27024;54.068;12.116;2022-11-20T10:58:24;3.35;;;2.35;;
583;SDS011;27024;54.068;12.116;2022-11-20T11:01:05;3.40;;;2.15;;
583;SDS011;27024;54.068;12.116;2022-11-20T11:03:39;3.17;;;2.13;;
583;SDS011;27024;54.068;12.116;2022-11-20T11:08:45;3.08;;;1.40;;
583;SDS011;27024;54.068;12.116;2022-11-20T11:13:50;3.70;;;2.50;;
583;SDS011;27024;54.068;12.116;2022-11-20T11:16:21;3.58;;;2.20;;
583;SDS011;27024;54.068;12.116;2022-11-20T11:18:50;4.05;;;2.33;;
583;SDS011;27024;54.068;12.116;2022-11-20T11:21:21;3.65;;;2.90;;
583;SDS011;27024;54.068;12.116;2022-11-20T11:24:00;3.65;;;2.35;;
583;SDS011;27024;54.068;12.116;2022-11-20T11:26:56;3.70;;;2.50;;
583;SDS011;27024;54.068;12.116;2022-11-20T11:29:25;3.65;;;2.92;;
583;SDS011;27024;54.068;12.116;2022-11-20T11:32:10;3.80;;;2.72;;
583;SDS011;27024;54.068;12.116;2022-11-20T11:34:39;3.53;;;2.47;;
583;SDS011;27024;54.068;12.116;2022-11-20T11:37:16;4.85;;;2.70;;
583;SDS011;27024;54.068;12.116;2022-11-20T11:39:45;3.53;;;2.20;;
583;SDS011;27024;54.068;12.116;2022-11-20T11:42:29;4.15;;;2.65;;
583;SDS011;27024;54.068;12.116;2022-11-20T11:44:57;4.45;;;3.00;;
583;SDS011;27024;54.068;12.116;2022-11-20T11:47:36;5.60;;;4.28;;
583;SDS011;27024;54.068;12.116;2022-11-20T11:52:38;4.85;;;3.28;;
583;SDS011;27024;54.068;12.116;2022-11-20T12:00:56;4.95;;;3.53;;
583;SDS011;27024;54.068;12.116;2022-11-20T12:03:35;5.55;;;3.22;;
583;SDS011;27024;54.068;12.116;2022-11-20T12:06:11;5.20;;;3.42;;
583;SDS011;27024;54.068;12.116;2022-11-20T12:16:41;5.75;;;3.67;;
583;SDS011;27024;54.068;12.116;2022-11-20T12:19:08;5.47;;;3.47;;
583;SDS011;27024;54.068;12.116;2022-11-20T12:21:42;5.45;;;3.97;;
583;SDS011;27024;54.068;12.116;2022-11-20T12:29:43;5.13;;;3.83;;
583;SDS011;27024;54.068;12.116;2022-11-20T12:46:23;6.68;;;3.88;;
583;SDS011;27024;54.068;12.116;2022-11-20T12:49:12;5.82;;;4.25;;
583;SDS011;27024;54.068;12.116;2022-11-20T12:52:17;6.95;;;4.05;;
583;SDS011;27024;54.068;12.116;2022-11-20T12:55:13;6.72;;;4.57;;
583;SDS011;27024;54.068;12.116;2022-11-20T13:00:20;7.07;;;4.60;;
583;SDS011;27024;54.068;12.116;2022-11-20T13:08:41;7.25;;;5.07;;
583;SDS011;27024;54.068;12.116;2022-11-20T13:19:36;7.88;;;3.85;;
583;SDS011;27024;54.068;12.116;2022-11-20T13:22:03;6.97;;;4.03;;
583;SDS011;27024;54.068;12.116;2022-11-20T13:24:30;6.32;;;4.45;;
583;SDS011;27024;54.068;12.116;2022-11-20T13:27:02;6.80;;;4.60;;
583;SDS011;27024;54.068;12.116;2022-11-20T13:29:40;6.28;;;4.68;;
583;SDS011;27024;54.068;12.116;2022-11-20T13:34:51;7.18;;;4.40;;
583;SDS011;27024;54.068;12.116;2022-11-20T13:37:29;6.15;;;4.63;;
583;SDS011;27024;54.068;12.116;2022-11-20T13:42:39;7.07;;;4.45;;
583;SDS011;27024;54.068;12.116;2022-11-20T13:45:20;6.65;;;4.13;;
583;SDS011;27024;54.068;12.116;2022-11-20T13:47:50;7.57;;;4.13;;
583;SDS011;27024;54.068;12.116;2022-11-20T13:50:18;7.63;;;5.05;;
583;SDS011;27024;54.068;12.116;2022-11-20T13:52:56;7.95;;;5.03;;
583;SDS011;27024;54.068;12.116;2022-11-20T13:55:41;7.22;;;4.45;;
583;SDS011;27024;54.068;12.116;2022-11-20T14:01:20;7.80;;;4.95;;
583;SDS011;27024;54.068;12.116;2022-11-20T14:03:49;8.00;;;5.78;;
583;SDS011;27024;54.068;12.116;2022-11-20T14:06:31;8.52;;;5.25;;
583;SDS011;27024;54.068;12.116;2022-11-20T14:09:04;9.05;;;5.38;;
583;SDS011;27024;54.068;12.116;2022-11-20T14:11:31;7.55;;;5.53;;
583;SDS011;27024;54.068;12.116;2022-11-20T14:16:40;7.95;;;5.28;;
583;SDS011;27024;54.068;12.116;2022-11-20T14:21:51;8.13;;;4.95;;
583;SDS011;27024;54.068;12.116;2022-11-20T14:24:20;10.35;;;5.15;;
583;SDS011;27024;54.068;12.116;2022-11-20T14:26:49;10.55;;;5.75;;
583;SDS011;27024;54.068;12.116;2022-11-20T14:29:18;10.07;;;6.53;;
583;SDS011;27024;54.068;12.116;2022-11-20T14:31:50;9.13;;;5.75;;
583;SDS011;27024;54.068;12.116;2022-11-20T14:34:20;9.77;;;5.65;;
583;SDS011;27024;54.068;12.116;2022-11-20T14:36:52;11.45;;;5.97;;
583;SDS011;27024;54.068;12.116;2022-11-20T14:41:59;8.65;;;5.50;;
583;SDS011;27024;54.068;12.116;2022-11-20T14:44:27;10.20;;;6.47;;
583;SDS011;27024;54.068;12.116;2022-11-20T14:46:57;9.90;;;6.10;;
583;SDS011;27024;54.068;12.116;2022-11-20T14:49:26;10.68;;;6.20;;
583;SDS011;27024;54.068;12.116;2022-11-20T14:52:11;12.23;;;7.78;;
583;SDS011;27024;54.068;12.116;2022-11-20T14:55:14;11.85;;;7.88;;
583;SDS011;27024;54.068;12.116;2022-11-20T14:57:35;14.02;;;8.32;;
583;SDS011;27024;54.068;12.116;2022-11-20T15:02:42;12.50;;;6.97;;
583;SDS011;27024;54.068;12.116;2022-11-20T15:05:10;14.75;;;7.82;;
583;SDS011;27024;54.068;12.116;2022-11-20T15:07:39;12.88;;;7.68;;
583;SDS011;27024;54.068;12.116;2022-11-20T15:12:55;11.77;;;6.63;;
583;SDS011;27024;54.068;12.116;2022-11-20T15:18:18;11.70;;;7.00;;
583;SDS011;27024;54.068;12.116;2022-11-20T15:20:49;14.02;;;7.60;;
583;SDS011;27024;54.068;12.116;2022-11-20T15:23:17;13.18;;;7.43;;
583;SDS011;27024;54.068;12.116;2022-11-20T15:25:45;13.45;;;7.88;;
583;SDS011;27024;54.068;12.116;2022-11-20T15:28:18;13.95;;;7.38;;
583;SDS011;27024;54.068;12.116;2022-11-20T15:30:46;12.48;;;7.22;;
583;SDS011;27024;54.068;12.116;2022-11-20T15:33:14;13.63;;;6.70;;
583;SDS011;27024;54.068;12.116;2022-11-20T15:35:41;13.07;;;7.25;;
583;SDS011;27024;54.068;12.116;2022-11-20T15:38:09;15.95;;;8.18;;
583;SDS011;27024;54.068;12.116;2022-11-20T15:40:36;13.10;;;7.85;;
583;SDS011;27024;54.068;12.116;2022-11-20T15:43:03;10.90;;;7.00;;
583;SDS011;27024;54.068;12.116;2022-11-20T15:45:42;11.93;;;6.10;;
583;SDS011;27024;54.068;12.116;2022-11-20T15:48:23;12.73;;;7.20;;
583;SDS011;27024;54.068;12.116;2022-11-20T15:53:20;11.98;;;6.65;;
583;SDS011;27024;54.068;12.116;2022-11-20T15:55:46;10.55;;;6.43;;
583;SDS011;27024;54.068;12.116;2022-11-20T15:58:13;11.50;;;6.43;;
583;SDS011;27024;54.068;12.116;2022-11-20T16:00:40;11.27;;;6.10;;
583;SDS011;27024;54.068;12.116;2022-11-20T16:03:09;12.25;;;6.72;;
583;SDS011;27024;54.068;12.116;2022-11-20T16:05:40;12.95;;;6.95;;
583;SDS011;27024;54.068;12.116;2022-11-20T16:08:07;13.98;;;7.70;;
583;SDS011;27024;54.068;12.116;2022-11-20T16:10:37;18.45;;;7.47;;
583;SDS011;27024;54.068;12.116;2022-11-20T16:13:04;17.45;;;7.88;;
583;SDS011;27024;54.068;12.116;2022-11-20T16:15:58;17.88;;;8.27;;
583;SDS011;27024;54.068;12.116;2022-11-20T16:18:31;18.60;;;8.55;;
583;SDS011;27024;54.068;12.116;2022-11-20T16:20:59;17.85;;;9.15;;
583;SDS011;27024;54.068;12.116;2022-11-20T16:23:26;18.42;;;8.55;;
583;SDS011;27024;54.068;12.116;2022-11-20T16:25:53;15.02;;;7.70;;
583;SDS011;27024;54.068;12.116;2022-11-20T16:28:20;14.05;;;7.95;;
583;SDS011;27024;54.068;12.116;2022-11-20T16:30:47;15.02;;;7.72;;
583;SDS011;27024;54.068;12.116;2022-11-20T16:33:14;14.38;;;7.85;;
583;SDS011;27024;54.068;12.116;2022-11-20T16:35:43;13.55;;;7.55;;
583;SDS011;27024;54.068;12.116;2022-11-20T16:38:10;12.48;;;6.90;;
583;SDS011;27024;54.068;12.116;2022-11-20T16:40:37;13.43;;;7.20;;
583;SDS011;27024;54.068;12.116;2022-11-20T16:43:08;14.27;;;8.57;;
583;SDS011;27024;54.068;12.116;2022-11-20T16:45:40;12.85;;;7.45;;
583;SDS011;27024;54.068;12.116;2022-11-20T16:48:11;13.60;;;7.80;;
583;SDS011;27024;54.068;12.116;2022-11-20T16:50:46;14.32;;;7.75;;
583;SDS011;27024;54.068;12.116;2022-11-20T16:53:16;13.48;;;7.50;;
583;SDS011;27024;54.068;12.116;2022-11-20T16:55:44;13.27;;;7.07;;
583;SDS011;27024;54.068;12.116;2022-11-20T16:58:12;12.23;;;6.57;;
583;SDS011;27024;54.068;12.116;2022-11-20T17:00:40;11.63;;;6.85;;
583;SDS011;27024;54.068;12.116;2022-11-20T17:03:13;14.10;;;7.38;;
583;SDS011;27024;54.068;12.116;2022-11-20T17:05:42;13.65;;;7.40;;
583;SDS011;27024;54.068;12.116;2022-11-20T17:08:09;12.30;;;7.60;;
583;SDS011;27024;54.068;12.116;2022-11-20T17:10:37;13.70;;;7.57;;
583;SDS011;27024;54.068;12.116;2022-11-20T17:13:04;13.90;;;7.88;;
583;SDS011;27024;54.068;12.116;2022-11-20T17:15:30;15.82;;;8.02;;
583;SDS011;27024;54.068;12.116;2022-11-20T17:17:57;13.38;;;7.68;;
583;SDS011;27024;54.068;12.116;2022-11-20T17:20:24;13.20;;;7.32;;
583;SDS011;27024;54.068;12.116;2022-11-20T17:22:52;13.50;;;7.38;;